createdAt,value
2022-11-08T00:00:24.655Z,88.20
2022-11-08T00:02:28.461Z,88.44
2022-11-08T00:04:32.510Z,88.11
2022-11-08T00:06:54.240Z,88.18
2022-11-08T00:09:15.267Z,87.72
2022-11-08T00:11:36.102Z,87.71
2022-11-08T00:14:00.037Z,87.51
2022-11-08T00:16:03.759Z,87.11
2022-11-08T00:18:08.232Z,86.51
2022-11-08T00:20:12.756Z,86.27
2022-11-08T00:22:17.216Z,86.77
2022-11-08T00:24:21.950Z,86.44
2022-11-08T00:26:25.630Z,86.83
2022-11-08T00:28:29.369Z,86.61
2022-11-08T00:30:34.549Z,87.19
2022-11-08T00:32:38.251Z,87.12
2022-11-08T00:34:41.941Z,87.39
2022-11-08T00:36:45.782Z,87.38
2022-11-08T00:38:49.434Z,87.42
2022-11-08T00:40:53.131Z,87.51
2022-11-08T00:42:56.758Z,87.49
2022-11-08T00:45:00.588Z,87.79
2022-11-08T00:47:06.214Z,87.70
2022-11-08T00:49:10.694Z,88.32
2022-11-08T00:51:15.128Z,87.83
2022-11-08T00:53:18.817Z,88.06
2022-11-08T00:55:22.463Z,88.06
2022-11-08T00:57:41.169Z,87.97
2022-11-08T00:59:49.081Z,87.88
2022-11-08T01:01:52.492Z,87.74
2022-11-08T01:03:57.402Z,87.51
2022-11-08T01:06:06.730Z,87.32
2022-11-08T01:08:10.693Z,87.12
2022-11-08T01:10:13.979Z,87.02
2022-11-08T01:12:17.475Z,86.26
2022-11-08T01:14:20.931Z,86.25
2022-11-08T01:16:26.310Z,85.73
2022-11-08T01:18:29.718Z,85.75
2022-11-08T01:20:34.572Z,85.02
2022-11-08T01:22:37.862Z,84.88
2022-11-08T01:24:41.210Z,85.36
2022-11-08T01:26:44.454Z,85.22
2022-11-08T01:28:48.664Z,84.46
2022-11-08T01:30:52.079Z,84.21
2022-11-08T01:32:55.916Z,84.37
2022-11-08T01:34:59.144Z,84.23
2022-11-08T01:37:03.959Z,83.59
2022-11-08T01:39:07.211Z,84.09
2022-11-08T01:41:13.575Z,83.60
2022-11-08T01:43:37.000Z,83.72
2022-11-08T01:46:17.496Z,84.26
2022-11-08T01:48:20.924Z,84.18
2022-11-08T01:50:24.385Z,83.99
2022-11-08T01:52:36.584Z,84.19
2022-11-08T01:54:45.801Z,84.18
2022-11-08T01:56:49.841Z,84.67
2022-11-08T01:58:56.614Z,84.89
2022-11-08T02:01:03.317Z,85.68
2022-11-08T02:03:09.150Z,85.87
2022-11-08T02:05:25.983Z,86.54
2022-11-08T02:07:31.481Z,86.37
2022-11-08T02:09:39.424Z,86.64
2022-11-08T02:11:44.374Z,86.77
2022-11-08T02:13:47.714Z,87.68
2022-11-08T02:15:51.266Z,87.79
2022-11-08T02:17:55.300Z,87.68
2022-11-08T02:19:58.612Z,88.38
2022-11-08T02:22:08.315Z,88.66
2022-11-08T02:24:15.206Z,88.51
2022-11-08T02:26:20.764Z,88.19
2022-11-08T02:28:24.058Z,88.18
2022-11-08T02:30:34.009Z,87.92
2022-11-08T02:32:40.638Z,88.03
2022-11-08T02:34:48.116Z,88.21
2022-11-08T02:36:51.981Z,87.86
2022-11-08T02:38:58.737Z,88.18
2022-11-08T02:41:03.533Z,88.11
2022-11-08T02:43:06.821Z,87.69
2022-11-08T02:45:11.339Z,87.60
2022-11-08T02:47:15.153Z,87.87
2022-11-08T02:49:19.094Z,88.00
2022-11-08T02:51:22.401Z,87.34
2022-11-08T02:53:25.733Z,87.80
2022-11-08T02:55:30.312Z,87.68
2022-11-08T02:57:35.067Z,88.26
2022-11-08T02:59:38.396Z,88.47
2022-11-08T03:01:41.925Z,88.13
2022-11-08T03:03:45.348Z,88.65
2022-11-08T03:05:48.764Z,89.16
2022-11-08T03:07:52.129Z,89.70
2022-11-08T03:09:55.372Z,90.34
2022-11-08T03:11:58.809Z,91.14
2022-11-08T03:14:03.393Z,91.77
2022-11-08T03:16:07.755Z,92.45
2022-11-08T03:18:11.114Z,93.26
2022-11-08T03:20:14.446Z,94.24
2022-11-08T03:22:17.700Z,94.42
2022-11-08T03:24:21.034Z,95.74
2022-11-08T03:26:24.252Z,96.32
2022-11-08T03:28:29.291Z,97.38
2022-11-08T03:30:34.891Z,97.21
2022-11-08T03:32:38.077Z,96.91
2022-11-08T03:34:41.389Z,97.52
2022-11-08T03:36:44.794Z,98.21
2022-11-08T03:38:48.020Z,98.20
2022-11-08T03:40:51.341Z,97.55
2022-11-08T03:42:56.719Z,98.24
2022-11-08T03:44:59.911Z,98.06
2022-11-08T03:47:04.579Z,97.53
2022-11-08T03:49:07.918Z,98.51
2022-11-08T03:51:11.258Z,97.99
2022-11-08T03:53:14.509Z,98.67
2022-11-08T03:55:18.993Z,99.15
2022-11-08T03:57:22.184Z,98.89
2022-11-08T03:59:25.380Z,99.42
2022-11-08T04:01:28.821Z,99.42
2022-11-08T04:03:34.265Z,98.92
2022-11-08T04:05:37.541Z,99.10
2022-11-08T04:07:41.318Z,100.00
2022-11-08T04:09:44.509Z,100.00
2022-11-08T04:12:05.331Z,99.63
2022-11-08T04:14:26.962Z,99.63
2022-11-08T04:16:32.619Z,99.94
2022-11-08T04:18:55.241Z,99.59
2022-11-08T04:21:19.199Z,99.67
2022-11-08T04:23:22.644Z,99.93
2022-11-08T04:25:26.744Z,100.00
2022-11-08T04:27:32.230Z,100.00
2022-11-08T04:29:35.484Z,100.00
2022-11-08T04:31:39.137Z,100.00
2022-11-08T04:33:44.420Z,100.00
2022-11-08T04:35:48.047Z,100.00
2022-11-08T04:37:51.367Z,100.00
2022-11-08T04:39:54.642Z,100.00
2022-11-08T04:42:02.174Z,100.00
2022-11-08T04:44:05.989Z,100.00
2022-11-08T04:46:11.196Z,100.00
2022-11-08T04:48:14.554Z,100.00
2022-11-08T04:50:19.388Z,100.00
2022-11-08T04:52:22.731Z,100.00
2022-11-08T04:54:26.087Z,100.00
2022-11-08T04:56:31.062Z,100.00
2022-11-08T04:58:35.839Z,100.00
2022-11-08T05:00:39.084Z,100.00
2022-11-08T05:02:42.682Z,100.00
2022-11-08T05:04:46.049Z,100.00
2022-11-08T05:06:50.789Z,100.00
2022-11-08T05:08:55.856Z,100.00
2022-11-08T05:11:03.163Z,100.00
2022-11-08T05:13:06.362Z,100.00
2022-11-08T05:15:10.600Z,100.00
2022-11-08T05:17:13.853Z,100.00
2022-11-08T05:19:37.338Z,99.97
2022-11-08T05:21:58.053Z,100.00
2022-11-08T05:24:03.033Z,100.00
2022-11-08T05:26:06.901Z,100.00
2022-11-08T05:28:10.251Z,100.00
2022-11-08T05:30:13.922Z,100.00
2022-11-08T05:32:17.217Z,100.00
2022-11-08T05:34:20.531Z,100.00
2022-11-08T05:36:23.751Z,100.00
2022-11-08T05:38:27.084Z,100.00
2022-11-08T05:40:33.482Z,100.00
2022-11-08T05:42:36.883Z,100.00
2022-11-08T05:44:40.238Z,100.00
2022-11-08T05:46:44.086Z,100.00
2022-11-08T05:48:50.040Z,100.00
2022-11-08T05:50:53.382Z,100.00
2022-11-08T05:52:56.686Z,100.00
2022-11-08T05:55:00.136Z,100.00
2022-11-08T05:57:04.944Z,100.00
2022-11-08T05:59:08.165Z,100.00
2022-11-08T06:01:13.094Z,100.00
2022-11-08T06:03:20.917Z,100.00
2022-11-08T06:05:26.274Z,100.00
2022-11-08T06:07:30.022Z,100.00
2022-11-08T06:09:33.375Z,100.00
2022-11-08T06:11:36.575Z,100.00
2022-11-08T06:13:41.701Z,100.00
2022-11-08T06:15:44.931Z,100.00
2022-11-08T06:17:48.265Z,100.00
2022-11-08T06:19:51.584Z,100.00
2022-11-08T06:21:54.848Z,100.00
2022-11-08T06:23:58.126Z,100.00
2022-11-08T06:26:01.920Z,100.00
2022-11-08T06:28:05.429Z,100.00
2022-11-08T06:30:11.282Z,100.00
2022-11-08T06:32:15.137Z,100.00
2022-11-08T06:34:18.607Z,100.00
2022-11-08T06:36:21.961Z,100.00
2022-11-08T06:38:25.466Z,100.00
2022-11-08T06:40:28.862Z,100.00
2022-11-08T06:42:32.120Z,100.00
2022-11-08T06:44:35.612Z,100.00
2022-11-08T06:46:40.231Z,99.93
2022-11-08T06:48:43.632Z,99.89
2022-11-08T06:50:46.970Z,99.23
2022-11-08T06:52:57.152Z,99.47
2022-11-08T06:55:01.781Z,99.18
2022-11-08T06:57:05.279Z,98.83
2022-11-08T06:59:08.771Z,98.49
2022-11-08T07:01:13.514Z,98.50
2022-11-08T07:03:19.167Z,98.93
2022-11-08T07:05:23.410Z,98.46
2022-11-08T07:07:26.739Z,98.47
2022-11-08T07:09:30.243Z,98.96
2022-11-08T07:11:33.571Z,98.64
2022-11-08T07:13:36.984Z,98.76
2022-11-08T07:15:41.180Z,98.53
2022-11-08T07:17:44.811Z,98.86
2022-11-08T07:19:49.732Z,98.96
2022-11-08T07:21:53.101Z,99.04
2022-11-08T07:23:56.421Z,99.34
2022-11-08T07:26:02.736Z,99.27
2022-11-08T07:28:08.115Z,98.82
2022-11-08T07:30:12.644Z,98.84
2022-11-08T07:32:15.982Z,98.98
2022-11-08T07:34:19.266Z,98.96
2022-11-08T07:36:24.088Z,98.69
2022-11-08T07:38:27.431Z,98.48
2022-11-08T07:40:30.805Z,97.85
2022-11-08T07:42:57.200Z,97.91
2022-11-08T07:45:00.908Z,97.58
2022-11-08T07:47:04.196Z,97.38
2022-11-08T07:49:07.968Z,97.12
2022-11-08T07:51:11.376Z,97.13
2022-11-08T07:53:16.478Z,96.67
2022-11-08T07:55:20.321Z,96.96
2022-11-08T07:57:23.648Z,96.64
2022-11-08T07:59:26.960Z,96.17
2022-11-08T08:01:30.525Z,96.00
2022-11-08T08:03:34.288Z,95.19
2022-11-08T08:05:39.248Z,95.60
2022-11-08T08:07:42.613Z,94.67
2022-11-08T08:09:47.468Z,94.09
2022-11-08T08:11:50.857Z,93.97
2022-11-08T08:13:56.071Z,93.77
2022-11-08T08:16:01.695Z,93.10
2022-11-08T08:18:06.832Z,92.79
2022-11-08T08:20:11.256Z,92.32
2022-11-08T08:22:14.763Z,92.51
2022-11-08T08:24:18.187Z,92.22
2022-11-08T08:26:23.266Z,92.51
2022-11-08T08:28:26.657Z,92.12
2022-11-08T08:30:31.504Z,91.88
2022-11-08T08:32:36.169Z,92.29
2022-11-08T08:34:39.931Z,91.85
2022-11-08T08:36:43.504Z,92.16
2022-11-08T08:38:47.310Z,91.65
2022-11-08T08:40:51.581Z,91.90
2022-11-08T08:42:56.935Z,91.77
2022-11-08T08:45:00.591Z,91.52
2022-11-08T08:47:04.384Z,91.61
2022-11-08T08:49:08.375Z,91.40
2022-11-08T08:51:12.361Z,90.70
2022-11-08T08:53:16.461Z,90.48
2022-11-08T08:55:20.421Z,90.47
2022-11-08T08:57:24.090Z,90.56
2022-11-08T09:01:53.837Z,90.12
2022-11-08T09:03:58.494Z,89.62
2022-11-08T09:06:04.488Z,89.41
2022-11-08T09:08:08.714Z,89.32
2022-11-08T09:10:13.794Z,89.71
2022-11-08T09:12:18.080Z,90.04
2022-11-08T09:14:22.416Z,89.87
2022-11-08T09:16:28.250Z,89.82
2022-11-08T09:18:33.385Z,89.91
2022-11-08T09:20:37.884Z,89.91
2022-11-08T09:22:43.022Z,89.61
2022-11-08T09:24:47.068Z,89.59
2022-11-08T09:26:51.728Z,89.27
2022-11-08T09:28:56.349Z,88.78
2022-11-08T09:31:05.827Z,88.41
2022-11-08T09:33:12.021Z,87.77
2022-11-08T09:35:17.330Z,87.22
2022-11-08T09:37:22.173Z,87.13
2022-11-08T09:39:26.667Z,86.92
2022-11-08T09:41:55.499Z,86.77
2022-11-08T09:44:15.606Z,85.65
2022-11-08T09:46:29.262Z,85.99
2022-11-08T09:48:39.498Z,85.61
2022-11-08T09:50:47.210Z,85.42
2022-11-08T09:52:57.160Z,85.21
2022-11-08T09:55:15.990Z,85.25
2022-11-08T09:57:26.860Z,85.74
2022-11-08T09:59:38.994Z,85.95
2022-11-08T10:01:45.357Z,85.93
2022-11-08T10:03:56.397Z,86.29
2022-11-08T10:06:37.300Z,86.24
2022-11-08T10:09:04.184Z,86.43
2022-11-08T10:11:21.241Z,85.74
2022-11-08T10:13:39.130Z,84.98
2022-11-08T10:15:54.768Z,85.26
2022-11-08T10:18:17.396Z,84.41
2022-11-08T10:20:35.208Z,83.64
2022-11-08T10:22:52.077Z,83.14
2022-11-08T10:25:02.533Z,82.72
2022-11-08T10:27:21.252Z,82.47
2022-11-08T10:29:29.291Z,82.11
2022-11-08T10:31:35.255Z,80.68
2022-11-08T10:33:47.348Z,80.30
2022-11-08T10:36:02.056Z,80.26
2022-11-08T10:38:19.384Z,79.48
2022-11-08T10:40:39.190Z,79.60
2022-11-08T10:42:48.118Z,78.31
2022-11-08T10:44:52.090Z,78.18
2022-11-08T10:47:02.062Z,77.83
2022-11-08T10:49:14.502Z,77.83
2022-11-08T10:51:19.800Z,77.65
2022-11-08T10:53:28.033Z,78.21
2022-11-08T10:55:37.128Z,76.67
2022-11-08T10:57:45.338Z,76.46
2022-11-08T10:59:49.359Z,76.87
2022-11-08T11:01:53.192Z,77.12
2022-11-08T11:03:57.063Z,77.07
2022-11-08T11:06:02.892Z,78.11
2022-11-08T11:08:19.278Z,77.66
2022-11-08T11:10:26.279Z,78.88
2022-11-08T11:12:31.372Z,78.20
2022-11-08T11:14:35.408Z,77.87
2022-11-08T11:16:39.805Z,77.79
2022-11-08T11:18:50.928Z,77.88
2022-11-08T11:21:04.401Z,78.41
2022-11-08T11:23:13.146Z,78.83
2022-11-08T11:25:19.335Z,79.15
2022-11-08T11:27:28.244Z,80.14
2022-11-08T11:29:33.983Z,80.15
2022-11-08T11:31:39.480Z,80.37
2022-11-08T11:33:46.764Z,80.52
2022-11-08T11:35:56.468Z,80.29
2022-11-08T11:38:02.925Z,80.08
2022-11-08T11:40:20.765Z,79.60
2022-11-08T11:42:45.171Z,79.01
2022-11-08T11:45:01.978Z,77.88
2022-11-08T11:47:15.581Z,77.22
2022-11-08T11:49:22.305Z,75.77
2022-11-08T11:51:29.460Z,75.18
2022-11-08T11:53:39.037Z,74.65
2022-11-08T11:55:59.304Z,74.57
2022-11-08T11:58:13.083Z,74.88
2022-11-08T12:00:17.843Z,73.97
2022-11-08T12:02:53.272Z,74.66
2022-11-08T12:05:23.507Z,75.22
2022-11-08T12:07:28.852Z,76.16
2022-11-08T12:09:45.554Z,76.04
2022-11-08T12:12:00.303Z,76.01
2022-11-08T12:14:26.561Z,76.47
2022-11-08T12:16:37.555Z,76.64
2022-11-08T12:18:58.392Z,77.30
2022-11-08T12:21:10.783Z,77.06
2022-11-08T12:23:38.995Z,77.54
2022-11-08T12:25:52.891Z,78.28
2022-11-08T12:28:07.947Z,77.77
2022-11-08T12:30:17.417Z,77.22
2022-11-08T12:32:36.485Z,75.89
2022-11-08T12:34:49.714Z,76.13
2022-11-08T12:37:14.925Z,76.42
2022-11-08T12:39:30.796Z,76.17
2022-11-08T12:41:46.396Z,76.18
2022-11-08T12:44:10.347Z,76.01
2022-11-08T12:46:18.670Z,76.31
2022-11-08T12:48:35.606Z,76.38
2022-11-08T12:50:49.029Z,76.29
2022-11-08T12:53:28.842Z,76.44
2022-11-08T12:55:38.904Z,76.16
2022-11-08T12:57:44.587Z,76.21
2022-11-08T12:59:57.987Z,76.38
2022-11-08T13:02:04.901Z,76.84
2022-11-08T13:04:30.091Z,77.10
2022-11-08T13:06:43.423Z,77.02
2022-11-08T13:08:57.750Z,76.48
2022-11-08T13:11:14.116Z,76.44
2022-11-08T13:13:29.878Z,76.02
2022-11-08T13:15:36.620Z,75.73
2022-11-08T13:17:41.306Z,75.99
2022-11-08T13:20:05.842Z,76.67
2022-11-08T13:26:24.010Z,77.56
2022-11-08T13:28:46.117Z,77.96
2022-11-08T13:31:04.194Z,77.60
2022-11-08T13:33:23.098Z,78.16
2022-11-08T13:35:33.149Z,78.42
2022-11-08T13:37:55.697Z,78.24
2022-11-08T13:40:18.859Z,78.47
2022-11-08T13:42:40.644Z,78.84
2022-11-08T13:45:00.459Z,78.76
2022-11-08T13:47:05.719Z,79.24
2022-11-08T13:49:20.993Z,79.55
2022-11-08T13:51:27.827Z,79.25
2022-11-08T13:53:47.610Z,80.10
2022-11-08T13:55:56.999Z,79.30
2022-11-08T13:58:05.257Z,79.44
2022-11-08T14:00:33.924Z,79.46
2022-11-08T14:02:41.248Z,78.93
2022-11-08T14:04:46.189Z,77.89
2022-11-08T14:07:01.718Z,77.54
2022-11-08T14:09:20.809Z,77.07
2022-11-08T14:11:40.773Z,77.69
2022-11-08T14:14:21.761Z,77.92
2022-11-08T14:16:30.962Z,77.99
2022-11-08T14:18:39.480Z,78.17
2022-11-08T14:20:45.053Z,77.85
2022-11-08T14:22:50.585Z,78.03
2022-11-08T14:24:59.923Z,78.03
2022-11-08T14:27:04.318Z,78.46
2022-11-08T14:29:10.627Z,78.26
2022-11-08T14:31:27.101Z,78.27
2022-11-08T14:33:31.861Z,78.88
2022-11-08T14:35:37.068Z,79.22
2022-11-08T14:37:44.391Z,79.31
2022-11-08T14:39:49.171Z,79.11
2022-11-08T14:41:55.933Z,79.16
2022-11-08T14:44:02.339Z,79.54
2022-11-08T14:46:13.635Z,79.49
2022-11-08T14:48:23.703Z,79.63
2022-11-08T14:50:32.140Z,79.56
2022-11-08T14:52:37.592Z,80.18
2022-11-08T14:54:43.994Z,80.23
2022-11-08T14:56:50.763Z,80.16
2022-11-08T14:58:56.438Z,80.32
2022-11-08T15:01:03.866Z,80.97
2022-11-08T15:03:08.509Z,80.72
2022-11-08T15:05:28.651Z,80.88
2022-11-08T15:07:33.698Z,80.50
2022-11-08T15:09:39.236Z,81.08
2022-11-08T15:11:46.520Z,80.79
2022-11-08T15:13:54.740Z,81.09
2022-11-08T15:16:04.468Z,81.36
2022-11-08T15:18:15.297Z,81.10
2022-11-08T15:20:23.598Z,80.88
2022-11-08T15:22:30.729Z,80.94
2022-11-08T15:24:40.995Z,80.90
2022-11-08T15:27:07.015Z,80.75
2022-11-08T15:29:19.983Z,80.70
2022-11-08T15:31:23.647Z,80.29
2022-11-08T15:33:31.820Z,80.00
2022-11-08T15:35:38.689Z,79.74
2022-11-08T15:37:44.075Z,79.04
2022-11-08T15:39:49.521Z,78.92
2022-11-08T15:42:04.967Z,79.05
2022-11-08T15:44:22.444Z,78.46
2022-11-08T15:46:30.937Z,78.79
2022-11-08T15:48:35.572Z,78.55
2022-11-08T15:50:41.685Z,79.16
2022-11-08T15:52:47.404Z,79.13
2022-11-08T15:54:53.033Z,79.42
2022-11-08T15:56:58.582Z,79.48
2022-11-08T15:59:03.247Z,79.93
2022-11-08T16:01:08.466Z,79.77
2022-11-08T16:03:12.923Z,80.11
2022-11-08T16:05:21.658Z,80.00
2022-11-08T16:07:26.676Z,80.30
2022-11-08T16:09:30.577Z,80.86
2022-11-08T16:11:39.064Z,80.89
2022-11-08T16:13:43.224Z,81.57
2022-11-08T16:15:48.779Z,81.52
2022-11-08T16:17:52.718Z,81.90
2022-11-08T16:19:57.305Z,81.39
2022-11-08T16:22:07.383Z,81.25
2022-11-08T16:24:11.417Z,81.47
2022-11-08T16:26:18.514Z,81.38
2022-11-08T16:28:35.185Z,80.58
2022-11-08T16:30:39.008Z,80.70
2022-11-08T16:32:44.032Z,80.81
2022-11-08T16:34:47.762Z,80.74
2022-11-08T16:36:52.180Z,80.49
2022-11-08T16:38:57.557Z,80.19
2022-11-08T16:41:01.252Z,80.25
2022-11-08T16:43:04.889Z,79.86
2022-11-08T16:45:10.978Z,79.87
2022-11-08T16:47:19.292Z,79.83
2022-11-08T16:49:27.066Z,79.89
2022-11-08T16:51:30.897Z,79.79
2022-11-08T16:53:37.124Z,80.02
2022-11-08T16:55:40.880Z,79.43
2022-11-08T16:57:44.926Z,79.48
2022-11-08T16:59:48.659Z,79.45
2022-11-08T17:01:54.312Z,79.92
2022-11-08T17:03:58.112Z,79.69
2022-11-08T17:06:02.346Z,79.30
2022-11-08T17:08:06.613Z,79.48
2022-11-08T17:10:14.053Z,79.60
2022-11-08T17:12:18.205Z,79.39
2022-11-08T17:14:22.296Z,79.53
2022-11-08T17:16:27.252Z,78.95
2022-11-08T17:18:32.315Z,78.87
2022-11-08T17:20:37.524Z,78.84
2022-11-08T17:22:41.416Z,77.93
2022-11-08T17:24:45.452Z,77.67
2022-11-08T17:26:49.261Z,77.29
2022-11-08T17:28:56.533Z,77.36
2022-11-08T17:31:10.642Z,77.48
2022-11-08T17:33:14.688Z,77.30
2022-11-08T17:35:19.704Z,77.44
2022-11-08T17:37:23.560Z,77.34
2022-11-08T17:39:27.328Z,77.66
2022-11-08T17:41:31.725Z,78.30
2022-11-08T17:43:36.054Z,77.97
2022-11-08T17:45:41.152Z,78.36
2022-11-08T17:47:44.995Z,78.44
2022-11-08T17:49:48.744Z,78.88
2022-11-08T17:51:54.030Z,78.68
2022-11-08T17:53:58.456Z,79.35
2022-11-08T17:56:04.623Z,79.57
2022-11-08T17:58:09.862Z,79.92
2022-11-08T18:00:16.535Z,80.04
2022-11-08T18:02:21.016Z,79.67
2022-11-08T18:04:26.557Z,79.82
2022-11-08T18:06:31.302Z,79.60
2022-11-08T18:08:38.983Z,80.16
2022-11-08T18:10:47.785Z,80.44
2022-11-08T18:12:51.956Z,80.54
2022-11-08T18:14:56.747Z,80.32
2022-11-08T18:17:00.478Z,80.87
2022-11-08T18:19:07.072Z,80.99
2022-11-08T18:21:11.761Z,81.02
2022-11-08T18:23:15.599Z,81.27
2022-11-08T18:25:23.491Z,81.48
2022-11-08T18:27:28.196Z,81.26
2022-11-08T18:29:34.709Z,81.40
2022-11-08T18:31:41.489Z,81.89
2022-11-08T18:33:46.671Z,82.32
2022-11-08T18:35:51.682Z,82.88
2022-11-08T18:37:57.904Z,83.45
2022-11-08T18:40:03.011Z,83.36
2022-11-08T18:42:09.378Z,83.38
2022-11-08T18:44:14.482Z,84.12
2022-11-08T18:46:20.204Z,84.21
2022-11-08T18:48:24.462Z,84.42
2022-11-08T18:50:28.614Z,84.59
2022-11-08T18:52:33.307Z,85.46
2022-11-08T18:54:37.245Z,85.72
2022-11-08T18:56:41.223Z,85.44
2022-11-08T18:58:47.979Z,85.32
2022-11-08T19:00:54.662Z,85.79
2022-11-08T19:02:59.339Z,86.06
2022-11-08T19:05:04.704Z,86.44
2022-11-08T19:07:11.193Z,86.58
2022-11-08T19:09:15.700Z,87.46
2022-11-08T19:11:23.212Z,88.10
2022-11-08T19:13:28.625Z,88.12
2022-11-08T19:15:33.880Z,87.89
2022-11-08T19:17:37.678Z,88.28
2022-11-08T19:19:41.931Z,88.25
2022-11-08T19:21:45.675Z,88.01
2022-11-08T19:23:50.772Z,88.24
2022-11-08T19:26:00.405Z,88.51
2022-11-08T19:28:04.545Z,88.64
2022-11-08T19:30:09.698Z,89.18
2022-11-08T19:32:15.879Z,89.27
2022-11-08T19:34:20.043Z,89.14
2022-11-08T19:36:25.505Z,89.76
2022-11-08T19:38:29.723Z,89.91
2022-11-08T19:40:33.452Z,90.26
2022-11-08T19:42:37.125Z,90.24
2022-11-08T19:44:41.426Z,90.42
2022-11-08T19:46:46.072Z,91.34
2022-11-08T19:48:53.039Z,91.22
2022-11-08T19:50:57.110Z,91.46
2022-11-08T19:53:06.679Z,91.66
2022-11-08T19:55:14.384Z,91.63
2022-11-08T19:57:20.427Z,92.08
2022-11-08T19:59:25.677Z,92.89
2022-11-08T20:01:36.313Z,92.51
2022-11-08T20:03:43.936Z,92.76
2022-11-08T20:05:53.271Z,92.74
2022-11-08T20:07:58.286Z,92.58
2022-11-08T20:10:02.828Z,93.08
2022-11-08T20:12:07.239Z,93.18
2022-11-08T20:14:14.317Z,93.20
2022-11-08T20:16:26.496Z,93.30
2022-11-08T20:18:30.122Z,93.18
2022-11-08T20:20:34.119Z,93.75
2022-11-08T20:22:41.250Z,93.88
2022-11-08T20:24:46.383Z,93.47
2022-11-08T20:26:50.418Z,94.13
2022-11-08T20:28:57.024Z,94.11
2022-11-08T20:31:04.455Z,93.92
2022-11-08T20:33:08.219Z,94.37
2022-11-08T20:35:11.896Z,94.47
2022-11-08T20:37:15.902Z,94.42
2022-11-08T20:39:23.447Z,94.97
2022-11-08T20:41:27.343Z,94.68
2022-11-08T20:43:33.179Z,95.34
2022-11-08T20:45:41.863Z,95.82
2022-11-08T20:47:48.260Z,95.23
2022-11-08T20:49:52.737Z,95.81
2022-11-08T20:51:58.146Z,95.78
2022-11-08T20:54:04.035Z,95.88
2022-11-08T20:56:12.357Z,96.06
2022-11-08T20:58:16.521Z,95.45
2022-11-08T21:00:51.877Z,95.62
2022-11-08T21:02:50.093Z,95.76
2022-11-08T21:04:53.604Z,96.45
2022-11-08T21:07:59.305Z,96.41
2022-11-08T21:09:37.331Z,96.52
2022-11-08T21:11:46.279Z,96.35
2022-11-08T21:13:50.273Z,96.85
2022-11-08T21:15:54.405Z,96.70
2022-11-08T21:17:58.281Z,96.90
2022-11-08T21:20:02.153Z,96.90
2022-11-08T21:22:17.866Z,97.06
2022-11-08T21:24:22.559Z,96.82
2022-11-08T21:26:27.485Z,96.58
2022-11-08T21:28:40.116Z,97.50
2022-11-08T21:31:02.054Z,97.17
2022-11-08T21:33:08.640Z,97.32
2022-11-08T21:35:12.802Z,97.21
2022-11-08T21:37:17.156Z,97.06
2022-11-08T21:39:21.455Z,97.57
2022-11-08T21:41:26.320Z,97.08
2022-11-08T21:43:37.117Z,97.61
2022-11-08T21:45:42.735Z,97.81
2022-11-08T21:47:52.361Z,97.74
2022-11-08T21:49:57.228Z,97.38
2022-11-08T21:52:04.316Z,97.53
2022-11-08T21:54:08.922Z,97.36
2022-11-08T21:56:13.340Z,97.58
2022-11-08T21:58:21.585Z,97.81
2022-11-08T22:00:29.114Z,97.83
2022-11-08T22:02:33.685Z,97.75
2022-11-08T22:04:41.097Z,97.47
2022-11-08T22:06:47.822Z,97.85
2022-11-08T22:08:52.553Z,98.31
2022-11-08T22:10:57.222Z,97.88
2022-11-08T22:13:01.465Z,98.03
2022-11-08T22:15:06.279Z,98.29
2022-11-08T22:17:11.830Z,98.37
2022-11-08T22:19:16.299Z,98.31
2022-11-08T22:21:37.647Z,98.39
2022-11-08T22:23:41.560Z,98.24
2022-11-08T22:25:45.346Z,98.62
2022-11-08T22:27:49.433Z,98.32
2022-11-08T22:29:53.568Z,98.54
2022-11-08T22:31:57.429Z,99.16
2022-11-08T22:34:02.874Z,99.42
2022-11-08T22:36:06.872Z,98.97
2022-11-08T22:38:10.622Z,99.11
2022-11-08T22:40:16.694Z,99.06
2022-11-08T22:42:20.553Z,99.01
2022-11-08T22:44:25.134Z,99.12
2022-11-08T22:46:28.930Z,99.52
2022-11-08T22:48:32.938Z,99.08
2022-11-08T22:50:51.067Z,99.04
2022-11-08T22:52:55.197Z,99.61
2022-11-08T22:54:59.328Z,99.70
2022-11-08T22:57:04.287Z,99.66
2022-11-08T22:59:08.013Z,99.73
2022-11-08T23:01:14.604Z,100.00
2022-11-08T23:03:18.696Z,99.32
2022-11-08T23:05:22.715Z,99.91
2022-11-08T23:07:28.145Z,99.97
2022-11-08T23:09:32.400Z,100.00
2022-11-08T23:11:53.707Z,99.65
2022-11-08T23:14:15.310Z,99.72
2022-11-08T23:16:35.671Z,99.89
2022-11-08T23:18:59.869Z,99.76
2022-11-08T23:21:21.188Z,99.38
2022-11-08T23:23:43.636Z,99.90
2022-11-08T23:25:47.747Z,99.98
2022-11-08T23:28:08.701Z,99.86
2022-11-08T23:30:32.994Z,99.77
2022-11-08T23:32:37.497Z,99.96
2022-11-08T23:34:41.465Z,100.00
2022-11-08T23:36:45.416Z,99.56
2022-11-08T23:38:52.936Z,99.99
2022-11-08T23:41:17.629Z,99.43
2022-11-08T23:43:39.166Z,99.46
2022-11-08T23:45:43.223Z,99.93
2022-11-08T23:47:47.688Z,99.57
2022-11-08T23:49:51.695Z,99.78
2022-11-08T23:51:56.365Z,99.83
2022-11-08T23:54:01.791Z,99.38
2022-11-08T23:56:06.027Z,99.69
2022-11-08T23:58:10.166Z,99.60
